sensor_id;sensor_type;location;lat;lon;timestamp;pressure;altitude;pressure_sealevel;temperature;humidity
22582;BME280;47125;48.542;9.052;2023-11-19T00:04:52;95928.94;;;9.18;100.00
22582;BME280;47125;48.542;9.052;2023-11-19T00:14:55;95908.06;;;9.15;100.00
22582;BME280;47125;48.542;9.052;2023-11-19T00:24:59;95893.47;;;9.29;100.00
22582;BME280;47125;48.542;9.052;2023-11-19T00:35:02;95901.63;;;9.34;100.00
22582;BME280;47125;48.542;9.052;2023-11-19T00:45:06;95885.38;;;9.35;100.00
22582;BME280;47125;48.542;9.052;2023-11-19T00:55:11;95871.94;;;9.42;100.00
22582;BME280;47125;48.542;9.052;2023-11-19T01:05:16;95858.03;;;9.40;100.00
22582;BME280;47125;48.542;9.052;2023-11-19T01:15:19;95860.22;;;9.55;100.00
22582;BME280;47125;48.542;9.052;2023-11-19T01:25:23;95851.78;;;9.46;100.00
22582;BME280;47125;48.542;9.052;2023-11-19T01:35:25;95825.56;;;9.55;100.00
22582;BME280;47125;48.542;9.052;2023-11-19T01:45:30;95840.72;;;9.66;100.00
22582;BME280;47125;48.542;9.052;2023-11-19T01:55:33;95835.75;;;9.69;100.00
22582;BME280;47125;48.542;9.052;2023-11-19T02:05:37;95825.09;;;9.69;100.00
22582;BME280;47125;48.542;9.052;2023-11-19T02:15:41;95812.66;;;9.75;100.00
22582;BME280;47125;48.542;9.052;2023-11-19T02:25:45;95813.34;;;9.82;100.00
22582;BME280;47125;48.542;9.052;2023-11-19T02:35:52;95803.00;;;9.85;100.00
22582;BME280;47125;48.542;9.052;2023-11-19T02:45:54;95808.66;;;9.89;100.00
22582;BME280;47125;48.542;9.052;2023-11-19T02:56:00;95811.91;;;9.91;100.00
22582;BME280;47125;48.542;9.052;2023-11-19T03:06:10;95798.19;;;9.99;100.00
22582;BME280;47125;48.542;9.052;2023-11-19T03:16:14;95812.22;;;10.06;100.00
22582;BME280;47125;48.542;9.052;2023-11-19T03:26:18;95829.00;;;10.07;100.00
22582;BME280;47125;48.542;9.052;2023-11-19T03:36:22;95813.44;;;10.27;100.00
22582;BME280;47125;48.542;9.052;2023-11-19T03:46:24;95803.31;;;10.29;100.00
22582;BME280;47125;48.542;9.052;2023-11-19T03:56:29;95810.13;;;10.36;100.00
22582;BME280;47125;48.542;9.052;2023-11-19T04:06:34;95812.78;;;10.36;100.00
22582;BME280;47125;48.542;9.052;2023-11-19T04:16:37;95795.66;;;10.49;100.00
22582;BME280;47125;48.542;9.052;2023-11-19T04:26:40;95810.97;;;10.54;100.00
22582;BME280;47125;48.542;9.052;2023-11-19T04:36:45;95834.13;;;10.65;100.00
22582;BME280;47125;48.542;9.052;2023-11-19T04:46:47;95831.03;;;10.73;100.00
22582;BME280;47125;48.542;9.052;2023-11-19T04:56:51;95827.97;;;10.81;100.00
22582;BME280;47125;48.542;9.052;2023-11-19T05:06:54;95837.84;;;10.80;100.00
22582;BME280;47125;48.542;9.052;2023-11-19T05:16:58;95829.84;;;10.97;100.00
22582;BME280;47125;48.542;9.052;2023-11-19T05:27:00;95821.03;;;10.96;100.00
22582;BME280;47125;48.542;9.052;2023-11-19T05:37:04;95841.41;;;11.02;100.00
22582;BME280;47125;48.542;9.052;2023-11-19T05:47:07;95824.66;;;11.07;100.00
22582;BME280;47125;48.542;9.052;2023-11-19T05:57:11;95819.31;;;11.07;100.00
22582;BME280;47125;48.542;9.052;2023-11-19T06:07:15;95830.94;;;11.18;100.00
22582;BME280;47125;48.542;9.052;2023-11-19T06:17:19;95832.09;;;11.22;100.00
22582;BME280;47125;48.542;9.052;2023-11-19T06:27:21;95826.03;;;11.26;100.00
22582;BME280;47125;48.542;9.052;2023-11-19T06:37:25;95836.47;;;11.28;100.00
22582;BME280;47125;48.542;9.052;2023-11-19T06:47:28;95847.47;;;11.31;100.00
22582;BME280;47125;48.542;9.052;2023-11-19T06:57:32;95860.59;;;11.33;100.00
22582;BME280;47125;48.542;9.052;2023-11-19T07:07:35;95847.81;;;11.35;100.00
22582;BME280;47125;48.542;9.052;2023-11-19T07:17:39;95855.41;;;11.43;100.00
22582;BME280;47125;48.542;9.052;2023-11-19T07:27:42;95853.84;;;11.47;100.00
22582;BME280;47125;48.542;9.052;2023-11-19T07:37:46;95889.00;;;11.55;100.00
22582;BME280;47125;48.542;9.052;2023-11-19T07:47:51;95891.19;;;11.58;100.00
22582;BME280;47125;48.542;9.052;2023-11-19T07:57:55;95891.81;;;11.66;100.00
22582;BME280;47125;48.542;9.052;2023-11-19T08:07:57;95891.66;;;11.72;100.00
22582;BME280;47125;48.542;9.052;2023-11-19T08:18:01;95886.47;;;11.82;100.00
22582;BME280;47125;48.542;9.052;2023-11-19T08:28:04;95880.19;;;11.93;100.00
22582;BME280;47125;48.542;9.052;2023-11-19T08:38:08;95884.22;;;11.96;100.00
22582;BME280;47125;48.542;9.052;2023-11-19T08:48:11;95868.38;;;12.11;100.00
22582;BME280;47125;48.542;9.052;2023-11-19T08:58:14;95866.63;;;12.22;100.00
22582;BME280;47125;48.542;9.052;2023-11-19T09:08:17;95878.56;;;12.36;100.00
22582;BME280;47125;48.542;9.052;2023-11-19T09:18:21;95888.41;;;12.52;100.00
22582;BME280;47125;48.542;9.052;2023-11-19T09:28:23;95886.56;;;12.57;100.00
22582;BME280;47125;48.542;9.052;2023-11-19T09:38:27;95893.88;;;13.15;100.00
22582;BME280;47125;48.542;9.052;2023-11-19T09:48:32;95898.41;;;13.15;100.00
22582;BME280;47125;48.542;9.052;2023-11-19T09:58:36;95889.75;;;13.08;100.00
22582;BME280;47125;48.542;9.052;2023-11-19T10:08:39;95881.03;;;13.22;100.00
22582;BME280;47125;48.542;9.052;2023-11-19T10:18:44;95871.00;;;13.40;100.00
22582;BME280;47125;48.542;9.052;2023-11-19T10:28:47;95894.25;;;13.29;100.00
22582;BME280;47125;48.542;9.052;2023-11-19T10:38:54;95869.72;;;13.52;100.00
22582;BME280;47125;48.542;9.052;2023-11-19T10:48:57;95869.44;;;13.49;99.58
22582;BME280;47125;48.542;9.052;2023-11-19T10:59:01;95846.09;;;13.49;99.82
22582;BME280;47125;48.542;9.052;2023-11-19T11:09:05;95853.47;;;13.69;99.03
22582;BME280;47125;48.542;9.052;2023-11-19T11:19:14;95854.50;;;13.63;96.17
22582;BME280;47125;48.542;9.052;2023-11-19T11:29:20;95849.16;;;13.68;92.70
22582;BME280;47125;48.542;9.052;2023-11-19T11:39:29;95858.41;;;13.87;91.14
22582;BME280;47125;48.542;9.052;2023-11-19T11:49:31;95850.66;;;13.96;91.22
22582;BME280;47125;48.542;9.052;2023-11-19T11:59:40;95848.72;;;13.91;91.90
22582;BME280;47125;48.542;9.052;2023-11-19T12:09:48;95845.75;;;13.82;91.22
22582;BME280;47125;48.542;9.052;2023-11-19T12:19:52;95831.03;;;13.90;90.21
22582;BME280;47125;48.542;9.052;2023-11-19T12:29:55;95821.03;;;14.32;88.69
22582;BME280;47125;48.542;9.052;2023-11-19T12:39:59;95828.47;;;14.30;86.39
22582;BME280;47125;48.542;9.052;2023-11-19T12:50:07;95816.69;;;14.31;81.84
22582;BME280;47125;48.542;9.052;2023-11-19T13:00:19;95802.28;;;14.63;77.40
22582;BME280;47125;48.542;9.052;2023-11-19T13:10:23;95791.53;;;14.68;78.38
22582;BME280;47125;48.542;9.052;2023-11-19T13:20:26;95783.97;;;15.05;75.20
22582;BME280;47125;48.542;9.052;2023-11-19T13:30:29;95777.00;;;14.79;73.53
22582;BME280;47125;48.542;9.052;2023-11-19T13:40:33;95774.03;;;14.75;74.02
22582;BME280;47125;48.542;9.052;2023-11-19T13:50:36;95764.09;;;14.76;76.04
22582;BME280;47125;48.542;9.052;2023-11-19T14:00:39;95772.72;;;14.63;75.18
22582;BME280;47125;48.542;9.052;2023-11-19T14:10:43;95761.41;;;14.51;75.67
22582;BME280;47125;48.542;9.052;2023-11-19T14:20:47;95770.78;;;14.38;75.16
22582;BME280;47125;48.542;9.052;2023-11-19T14:30:49;95747.66;;;14.32;75.82
22582;BME280;47125;48.542;9.052;2023-11-19T14:40:59;95746.81;;;14.21;75.22
22582;BME280;47125;48.542;9.052;2023-11-19T14:51:01;95756.47;;;14.17;74.90
22582;BME280;47125;48.542;9.052;2023-11-19T15:01:06;95753.00;;;14.22;74.83
22582;BME280;47125;48.542;9.052;2023-11-19T15:11:08;95769.09;;;14.17;74.41
22582;BME280;47125;48.542;9.052;2023-11-19T15:21:14;95773.09;;;14.04;75.79
22582;BME280;47125;48.542;9.052;2023-11-19T15:31:16;95766.63;;;14.00;76.75
22582;BME280;47125;48.542;9.052;2023-11-19T15:41:20;95764.94;;;13.79;78.50
22582;BME280;47125;48.542;9.052;2023-11-19T15:51:23;95755.50;;;13.66;79.42
22582;BME280;47125;48.542;9.052;2023-11-19T16:01:27;95751.66;;;13.47;79.52
22582;BME280;47125;48.542;9.052;2023-11-19T16:11:32;95748.16;;;13.42;80.07
22582;BME280;47125;48.542;9.052;2023-11-19T16:21:53;95759.16;;;13.45;79.40
22582;BME280;47125;48.542;9.052;2023-11-19T16:31:56;95760.44;;;13.38;79.49
22582;BME280;47125;48.542;9.052;2023-11-19T16:41:59;95763.56;;;13.19;79.51
22582;BME280;47125;48.542;9.052;2023-11-19T16:52:02;95781.25;;;13.15;79.62
22582;BME280;47125;48.542;9.052;2023-11-19T17:02:07;95788.00;;;12.91;80.08
22582;BME280;47125;48.542;9.052;2023-11-19T17:12:12;95778.78;;;12.77;79.51
22582;BME280;47125;48.542;9.052;2023-11-19T17:22:16;95788.22;;;12.85;78.68
22582;BME280;47125;48.542;9.052;2023-11-19T17:32:19;95803.91;;;12.71;78.06
22582;BME280;47125;48.542;9.052;2023-11-19T17:42:23;95804.06;;;12.59;78.46
22582;BME280;47125;48.542;9.052;2023-11-19T17:52:25;95817.47;;;12.59;78.18
22582;BME280;47125;48.542;9.052;2023-11-19T18:02:29;95828.84;;;12.71;77.25
22582;BME280;47125;48.542;9.052;2023-11-19T18:12:34;95834.19;;;12.71;77.16
22582;BME280;47125;48.542;9.052;2023-11-19T18:22:39;95821.97;;;12.54;77.82
22582;BME280;47125;48.542;9.052;2023-11-19T18:32:42;95830.28;;;12.52;77.77
22582;BME280;47125;48.542;9.052;2023-11-19T18:42:47;95834.63;;;12.58;77.68
22582;BME280;47125;48.542;9.052;2023-11-19T18:52:54;95851.41;;;12.49;78.58
22582;BME280;47125;48.542;9.052;2023-11-19T19:02:59;95842.84;;;12.52;78.26
22582;BME280;47125;48.542;9.052;2023-11-19T19:13:04;95834.66;;;12.37;78.36
22582;BME280;47125;48.542;9.052;2023-11-19T19:23:10;95836.13;;;12.23;78.78
22582;BME280;47125;48.542;9.052;2023-11-19T19:33:13;95829.88;;;12.17;80.08
22582;BME280;47125;48.542;9.052;2023-11-19T19:43:17;95836.88;;;12.18;79.81
22582;BME280;47125;48.542;9.052;2023-11-19T19:53:19;95868.00;;;12.02;80.54
22582;BME280;47125;48.542;9.052;2023-11-19T20:03:23;95862.97;;;12.06;80.87
22582;BME280;47125;48.542;9.052;2023-11-19T20:13:26;95861.28;;;12.22;79.89
22582;BME280;47125;48.542;9.052;2023-11-19T20:23:31;95858.84;;;12.20;79.65
22582;BME280;47125;48.542;9.052;2023-11-19T20:33:35;95863.41;;;12.20;79.92
22582;BME280;47125;48.542;9.052;2023-11-19T20:43:39;95876.78;;;12.20;79.94
22582;BME280;47125;48.542;9.052;2023-11-19T20:53:42;95861.44;;;12.37;79.67
22582;BME280;47125;48.542;9.052;2023-11-19T21:03:46;95873.91;;;12.26;80.71
22582;BME280;47125;48.542;9.052;2023-11-19T21:13:48;95871.03;;;12.33;80.93
22582;BME280;47125;48.542;9.052;2023-11-19T21:23:52;95884.19;;;12.34;81.79
22582;BME280;47125;48.542;9.052;2023-11-19T21:33:56;95886.72;;;12.46;81.83
22582;BME280;47125;48.542;9.052;2023-11-19T21:44:02;95878.56;;;12.36;80.49
22582;BME280;47125;48.542;9.052;2023-11-19T21:54:04;95881.50;;;12.34;78.58
22582;BME280;47125;48.542;9.052;2023-11-19T22:04:08;95882.78;;;12.32;79.70
22582;BME280;47125;48.542;9.052;2023-11-19T22:14:11;95894.94;;;12.18;80.31
22582;BME280;47125;48.542;9.052;2023-11-19T22:24:15;95898.22;;;12.20;81.07
22582;BME280;47125;48.542;9.052;2023-11-19T22:34:18;95893.63;;;12.20;80.53
22582;BME280;47125;48.542;9.052;2023-11-19T22:44:22;95898.06;;;12.31;80.31
22582;BME280;47125;48.542;9.052;2023-11-19T22:54:25;95886.22;;;12.27;79.80
22582;BME280;47125;48.542;9.052;2023-11-19T23:04:29;95894.00;;;12.29;80.19
22582;BME280;47125;48.542;9.052;2023-11-19T23:14:31;95891.13;;;12.35;80.20
22582;BME280;47125;48.542;9.052;2023-11-19T23:24:35;95903.34;;;12.48;80.09
22582;BME280;47125;48.542;9.052;2023-11-19T23:34:38;95896.06;;;12.43;79.15
22582;BME280;47125;48.542;9.052;2023-11-19T23:44:45;95891.53;;;12.22;79.35
22582;BME280;47125;48.542;9.052;2023-11-19T23:54:47;95877.38;;;12.27;79.99
